createdAt,value
2019-03-01T00:00:16.305Z,57.60
2019-03-01T00:02:47.426Z,60.03
2019-03-01T00:05:28.719Z,60.67
2019-03-01T00:08:16.575Z,65.00
2019-03-01T00:11:08.861Z,58.00
2019-03-01T00:13:56.598Z,60.97
2019-03-01T00:16:40.989Z,61.10
2019-03-01T00:19:29.886Z,61.20
2019-03-01T00:22:23.696Z,65.10
2019-03-01T00:25:04.843Z,60.03
2019-03-01T00:27:44.902Z,58.30
2019-03-01T00:30:39.847Z,58.73
2019-03-01T00:33:12.328Z,58.07
2019-03-01T00:36:00.126Z,59.37
2019-03-01T00:38:52.378Z,58.43
2019-03-01T00:41:30.371Z,57.97
2019-03-01T00:44:19.012Z,55.53
2019-03-01T00:46:48.465Z,54.37
2019-03-01T00:49:17.896Z,58.50
2019-03-01T00:51:47.554Z,55.87
2019-03-01T00:54:18.605Z,57.10
2019-03-01T00:56:50.119Z,56.63
2019-03-01T00:59:19.244Z,56.23
2019-03-01T01:01:51.522Z,53.60
2019-03-01T01:04:22.030Z,55.47
2019-03-01T01:06:51.527Z,55.13
2019-03-01T01:09:20.971Z,54.87
2019-03-01T01:11:52.485Z,56.10
2019-03-01T01:14:22.006Z,55.20
2019-03-01T01:16:51.619Z,53.07
2019-03-01T01:19:21.071Z,54.70
2019-03-01T01:21:53.275Z,52.90
2019-03-01T01:24:22.733Z,54.13
2019-03-01T01:26:52.150Z,54.00
2019-03-01T01:29:21.599Z,53.63
2019-03-01T01:31:51.020Z,50.03
2019-03-01T01:34:20.537Z,52.87
2019-03-01T01:36:56.540Z,52.07
2019-03-01T01:39:26.413Z,49.80
2019-03-01T01:41:55.831Z,48.73
2019-03-01T01:44:25.266Z,50.23
2019-03-01T01:46:54.691Z,51.17
2019-03-01T01:49:27.046Z,49.30
2019-03-01T01:51:56.932Z,48.33
2019-03-01T01:54:37.079Z,47.70
2019-03-01T01:57:06.591Z,46.03
2019-03-01T01:59:37.647Z,46.37
2019-03-01T02:02:07.105Z,44.00
2019-03-01T02:04:36.591Z,46.00
2019-03-01T02:07:06.241Z,42.80
2019-03-01T02:09:36.881Z,43.53
2019-03-01T02:12:06.455Z,42.23
2019-03-01T02:14:38.661Z,41.03
2019-03-01T02:17:08.097Z,40.20
2019-03-01T02:19:37.939Z,40.57
2019-03-01T02:22:09.051Z,43.57
2019-03-01T02:24:38.406Z,38.67
2019-03-01T02:27:22.941Z,40.53
2019-03-01T02:29:52.614Z,41.10
2019-03-01T02:32:36.904Z,41.63
2019-03-01T02:35:12.739Z,41.17
2019-03-01T02:37:42.308Z,38.80
2019-03-01T02:40:14.180Z,41.43
2019-03-01T02:42:43.722Z,40.50
2019-03-01T02:45:16.249Z,41.27
2019-03-01T02:47:45.666Z,41.63
2019-03-01T02:50:16.862Z,42.27
2019-03-01T02:52:46.411Z,41.63
2019-03-01T02:55:21.163Z,42.00
2019-03-01T02:57:53.810Z,38.73
2019-03-01T03:00:29.485Z,40.77
2019-03-01T03:02:59.084Z,42.07
2019-03-01T03:05:28.598Z,39.93
2019-03-01T03:08:05.680Z,40.27
2019-03-01T03:10:37.284Z,41.70
2019-03-01T03:13:07.737Z,41.43
2019-03-01T03:15:43.244Z,39.53
2019-03-01T03:18:14.977Z,39.13
2019-03-01T03:20:44.418Z,38.67
2019-03-01T03:23:13.852Z,36.53
2019-03-01T03:25:46.661Z,39.27
2019-03-01T03:28:17.970Z,37.60
2019-03-01T03:30:49.166Z,38.23
2019-03-01T03:33:18.631Z,37.27
2019-03-01T03:35:48.425Z,37.00
2019-03-01T03:38:17.909Z,38.60
2019-03-01T03:40:48.993Z,37.97
2019-03-01T03:43:18.502Z,36.67
2019-03-01T03:45:47.947Z,33.97
2019-03-01T03:48:20.579Z,37.30
2019-03-01T03:50:50.023Z,37.33
2019-03-01T03:53:19.463Z,37.60
2019-03-01T03:55:48.901Z,38.57
2019-03-01T03:58:18.380Z,39.13
2019-03-01T04:00:48.967Z,40.17
2019-03-01T04:03:21.735Z,38.87
2019-03-01T04:05:52.287Z,36.83
2019-03-01T04:08:21.804Z,38.47
2019-03-01T04:10:51.223Z,39.67
2019-03-01T04:13:20.671Z,40.10
2019-03-01T04:15:52.576Z,39.20
2019-03-01T04:18:22.023Z,39.53
2019-03-01T04:20:51.448Z,40.53
2019-03-01T04:23:20.884Z,38.63
2019-03-01T04:25:50.324Z,41.53
2019-03-01T04:28:20.320Z,40.50
2019-03-01T04:30:49.885Z,40.77
2019-03-01T04:33:20.623Z,41.30
2019-03-01T04:35:50.058Z,42.10
2019-03-01T04:38:19.497Z,41.17
2019-03-01T04:40:50.911Z,41.87
2019-03-01T04:43:20.354Z,41.70
2019-03-01T04:45:49.906Z,42.13
2019-03-01T04:48:19.286Z,42.63
2019-03-01T04:50:49.200Z,44.00
2019-03-01T04:53:21.386Z,42.37
2019-03-01T04:55:50.803Z,43.77
2019-03-01T04:58:20.266Z,42.77
2019-03-01T05:00:49.753Z,42.43
2019-03-01T05:03:22.310Z,42.27
2019-03-01T05:05:54.124Z,41.23
2019-03-01T05:08:23.539Z,41.47
2019-03-01T05:10:56.550Z,41.07
2019-03-01T05:13:26.128Z,41.97
2019-03-01T05:15:56.060Z,42.07
2019-03-01T05:18:25.522Z,40.63
2019-03-01T05:20:57.203Z,40.10
2019-03-01T05:23:26.658Z,39.30
2019-03-01T05:25:56.074Z,40.20
2019-03-01T05:28:25.493Z,42.50
2019-03-01T05:30:54.953Z,40.70
2019-03-01T05:33:24.366Z,40.50
2019-03-01T05:35:55.330Z,40.80
2019-03-01T05:38:28.544Z,41.30
2019-03-01T05:40:59.891Z,39.57
2019-03-01T05:43:29.302Z,39.77
2019-03-01T05:45:58.760Z,41.27
2019-03-01T05:48:28.176Z,40.17
2019-03-01T05:50:57.692Z,40.73
2019-03-01T05:53:27.180Z,41.37
2019-03-01T05:55:56.648Z,38.53
2019-03-01T05:58:33.925Z,39.20
2019-03-01T06:01:06.549Z,40.27
2019-03-01T06:03:55.371Z,39.30
2019-03-01T06:07:01.494Z,38.03
2019-03-01T06:09:49.139Z,38.90
2019-03-01T06:12:21.607Z,39.07
2019-03-01T06:15:05.903Z,37.10
2019-03-01T06:18:02.725Z,38.67
2019-03-01T06:20:56.148Z,37.73
2019-03-01T06:23:40.649Z,37.60
2019-03-01T06:26:38.861Z,38.70
2019-03-01T06:29:14.259Z,39.17
2019-03-01T06:32:04.321Z,40.50
2019-03-01T06:34:48.828Z,39.73
2019-03-01T06:37:51.567Z,39.00
2019-03-01T06:40:31.473Z,40.03
2019-03-01T06:43:06.778Z,38.83
2019-03-01T06:45:54.065Z,40.47
2019-03-01T06:48:25.151Z,42.63
2019-03-01T06:50:56.245Z,41.17
2019-03-01T06:53:25.737Z,38.97
2019-03-01T06:55:55.318Z,39.80
2019-03-01T06:58:24.810Z,40.00
2019-03-01T07:00:55.963Z,39.80
2019-03-01T07:03:25.460Z,38.20
2019-03-01T07:06:03.118Z,40.97
2019-03-01T07:08:26.016Z,40.67
2019-03-01T07:10:55.461Z,40.53
2019-03-01T07:13:25.047Z,41.50
2019-03-01T07:15:54.482Z,40.50
2019-03-01T07:18:23.928Z,41.67
2019-03-01T07:20:54.420Z,42.10
2019-03-01T07:23:23.875Z,40.73
2019-03-01T07:25:54.874Z,42.77
2019-03-01T07:28:24.574Z,42.87
2019-03-01T07:30:54.012Z,42.70
2019-03-01T07:33:23.535Z,41.10
2019-03-01T07:35:52.966Z,41.07
2019-03-01T07:38:22.424Z,42.80
2019-03-01T07:40:51.882Z,43.97
2019-03-01T07:43:21.386Z,41.20
2019-03-01T07:45:51.080Z,43.50
2019-03-01T07:48:20.587Z,45.83
2019-03-01T07:50:52.427Z,44.03
2019-03-01T07:53:21.316Z,44.67
2019-03-01T07:55:50.833Z,46.37
2019-03-01T07:58:21.576Z,45.87
2019-03-01T08:00:53.610Z,46.23
2019-03-01T08:03:22.630Z,46.80
2019-03-01T08:05:52.051Z,49.43
2019-03-01T08:08:22.700Z,49.17
2019-03-01T08:10:53.475Z,47.70
2019-03-01T08:13:23.199Z,45.77
2019-03-01T08:15:52.697Z,44.60
2019-03-01T08:18:22.154Z,43.20
2019-03-01T08:20:51.661Z,44.07
2019-03-01T08:23:21.120Z,43.37
2019-03-01T08:25:50.610Z,44.40
2019-03-01T08:28:22.014Z,43.23
2019-03-01T08:30:51.312Z,40.67
2019-03-01T08:33:20.763Z,42.83
2019-03-01T08:35:50.188Z,42.87
2019-03-01T08:38:21.582Z,43.60
2019-03-01T08:40:51.123Z,42.47
2019-03-01T08:43:20.555Z,43.80
2019-03-01T08:45:49.989Z,44.20
2019-03-01T08:48:19.495Z,43.33
2019-03-01T08:50:48.935Z,43.70
2019-03-01T08:53:18.380Z,46.60
2019-03-01T08:55:47.801Z,45.80
2019-03-01T08:58:18.425Z,47.27
2019-03-01T09:00:59.040Z,49.83
2019-03-01T09:03:41.685Z,51.83
2019-03-01T09:06:11.402Z,52.13
2019-03-01T09:08:42.863Z,53.73
2019-03-01T09:11:12.248Z,50.93
2019-03-01T09:13:41.792Z,53.13
2019-03-01T09:16:11.424Z,53.07
2019-03-01T09:18:41.267Z,51.43
2019-03-01T09:21:12.935Z,52.07
2019-03-01T09:23:41.970Z,51.03
2019-03-01T09:26:11.802Z,53.63
2019-03-01T09:28:41.307Z,52.67
2019-03-01T09:31:10.784Z,54.23
2019-03-01T09:33:40.282Z,55.47
2019-03-01T09:36:14.433Z,55.30
2019-03-01T09:38:43.715Z,53.43
2019-03-01T09:41:13.391Z,54.30
2019-03-01T09:43:42.976Z,55.20
2019-03-01T09:46:12.492Z,56.33
2019-03-01T09:48:41.991Z,54.97
2019-03-01T09:51:11.539Z,49.47
2019-03-01T09:53:41.038Z,49.43
2019-03-01T09:56:12.914Z,47.10
2019-03-01T09:58:41.763Z,47.50
2019-03-01T10:01:17.094Z,48.03
2019-03-01T10:03:46.942Z,49.23
2019-03-01T10:06:16.412Z,49.27
2019-03-01T10:08:46.003Z,49.20
2019-03-01T10:11:18.909Z,44.93
2019-03-01T10:13:52.538Z,41.57
2019-03-01T10:16:33.430Z,41.87
2019-03-01T10:19:03.127Z,40.73
2019-03-01T10:21:40.372Z,41.67
2019-03-01T10:24:25.365Z,41.80
2019-03-01T10:27:05.014Z,41.00
2019-03-01T10:29:37.278Z,40.77
2019-03-01T10:32:06.804Z,41.10
2019-03-01T10:34:36.371Z,41.00
2019-03-01T10:37:05.872Z,39.43
2019-03-01T10:39:35.508Z,40.77
2019-03-01T10:42:05.008Z,39.13
2019-03-01T10:44:34.548Z,37.33
2019-03-01T10:47:04.215Z,37.30
2019-03-01T10:49:33.782Z,37.47
2019-03-01T10:52:03.448Z,37.50
2019-03-01T10:54:33.977Z,34.37
2019-03-01T10:57:04.568Z,33.50
2019-03-01T10:59:33.989Z,33.07
2019-03-01T11:02:03.606Z,33.43
2019-03-01T11:04:33.313Z,33.83
2019-03-01T11:07:02.861Z,32.87
2019-03-01T11:09:32.329Z,31.60
2019-03-01T11:12:04.639Z,33.20
2019-03-01T11:14:34.071Z,32.00
2019-03-01T11:17:03.567Z,29.40
2019-03-01T11:19:33.155Z,29.63
2019-03-01T11:22:02.729Z,27.50
2019-03-01T11:24:32.161Z,25.07
2019-03-01T11:27:01.623Z,24.33
2019-03-01T11:29:31.037Z,23.50
2019-03-01T11:32:00.503Z,22.70
2019-03-01T11:34:29.959Z,21.97
2019-03-01T11:37:01.213Z,21.23
2019-03-01T11:39:33.755Z,19.83
2019-03-01T11:42:06.065Z,20.40
2019-03-01T11:44:35.590Z,19.13
2019-03-01T11:47:05.015Z,17.83
2019-03-01T11:49:34.528Z,19.37
2019-03-01T11:52:04.107Z,18.73
2019-03-01T11:54:33.541Z,19.13
2019-03-01T11:57:02.996Z,19.93
2019-03-01T11:59:32.507Z,19.33
2019-03-01T12:02:02.008Z,19.07
2019-03-01T12:04:36.359Z,20.07
2019-03-01T12:07:05.828Z,19.90
2019-03-01T12:09:35.258Z,18.63
2019-03-01T12:12:06.739Z,18.57
2019-03-01T12:14:36.422Z,17.37
2019-03-01T12:17:05.873Z,16.83
2019-03-01T12:19:35.366Z,17.47
2019-03-01T12:22:04.783Z,17.63
2019-03-01T12:24:34.219Z,18.27
2019-03-01T12:27:03.780Z,17.73
2019-03-01T12:29:33.304Z,18.00
2019-03-01T12:32:02.986Z,18.93
2019-03-01T12:34:32.580Z,18.23
2019-03-01T12:37:03.179Z,18.97
2019-03-01T12:39:32.697Z,16.80
2019-03-01T12:42:02.185Z,17.93
2019-03-01T12:44:31.632Z,17.80
2019-03-01T12:47:01.200Z,19.07
2019-03-01T12:49:32.264Z,19.47
2019-03-01T12:52:04.681Z,20.70
2019-03-01T12:54:34.216Z,17.00
2019-03-01T12:57:03.759Z,23.13
2019-03-01T12:59:33.445Z,16.10
2019-03-01T13:02:02.888Z,21.80
2019-03-01T13:04:35.439Z,19.03
2019-03-01T13:07:04.981Z,17.60
2019-03-01T13:09:34.505Z,15.57
2019-03-01T13:12:04.226Z,15.67
2019-03-01T13:14:36.702Z,15.47
2019-03-01T13:17:05.045Z,17.30
2019-03-01T13:19:34.581Z,13.20
2019-03-01T13:22:04.193Z,13.03
2019-03-01T13:24:33.687Z,9.80
2019-03-01T13:27:05.687Z,10.73
2019-03-01T13:29:35.315Z,10.03
2019-03-01T13:32:04.834Z,8.33
2019-03-01T13:34:34.264Z,10.37
2019-03-01T13:37:03.854Z,7.90
2019-03-01T13:39:33.382Z,10.30
2019-03-01T13:42:03.256Z,11.37
2019-03-01T13:44:32.746Z,9.40
2019-03-01T13:47:05.313Z,9.33
2019-03-01T13:49:36.422Z,6.77
2019-03-01T13:52:05.932Z,6.87
2019-03-01T13:54:35.398Z,7.20
2019-03-01T13:57:04.906Z,7.33
2019-03-01T13:59:37.603Z,6.30
2019-03-01T14:02:07.591Z,6.50
2019-03-01T14:04:40.315Z,6.50
2019-03-01T14:07:08.454Z,6.40
2019-03-01T14:09:37.987Z,5.57
2019-03-01T14:12:07.386Z,6.80
2019-03-01T14:14:36.922Z,6.00
2019-03-01T14:17:09.567Z,6.03
2019-03-01T14:19:42.176Z,6.03
2019-03-01T14:22:16.119Z,5.20
2019-03-01T14:24:45.724Z,5.10
2019-03-01T14:27:18.300Z,5.40
2019-03-01T14:29:52.528Z,5.90
2019-03-01T14:32:21.755Z,6.33
2019-03-01T14:34:50.119Z,5.40
2019-03-01T14:37:19.546Z,4.23
2019-03-01T14:39:48.964Z,4.53
2019-03-01T14:42:20.865Z,4.70
2019-03-01T14:44:50.314Z,4.50
2019-03-01T14:47:19.996Z,4.37
2019-03-01T14:49:53.956Z,4.40
2019-03-01T14:52:23.202Z,3.37
2019-03-01T14:54:52.664Z,3.13
2019-03-01T14:57:24.718Z,3.20
2019-03-01T15:00:00.364Z,3.13
2019-03-01T15:02:39.713Z,3.07
2019-03-01T15:05:17.098Z,4.33
2019-03-01T15:07:40.931Z,4.20
2019-03-01T15:10:12.655Z,4.10
2019-03-01T15:12:42.394Z,3.47
2019-03-01T15:15:13.253Z,4.03
2019-03-01T15:17:44.034Z,3.93
2019-03-01T15:20:17.164Z,4.10
2019-03-01T15:22:48.687Z,4.50
2019-03-01T15:25:19.245Z,6.37
2019-03-01T15:27:49.111Z,7.10
2019-03-01T15:30:18.945Z,9.73
2019-03-01T15:32:48.525Z,15.23
2019-03-01T15:35:19.056Z,8.20
2019-03-01T15:37:48.500Z,4.63
2019-03-01T15:40:18.002Z,5.67
2019-03-01T15:42:47.495Z,5.90
2019-03-01T15:45:19.847Z,6.37
2019-03-01T15:47:50.496Z,7.20
2019-03-01T15:50:20.122Z,6.77
2019-03-01T15:52:50.761Z,6.90
2019-03-01T15:55:20.545Z,6.97
2019-03-01T15:57:53.009Z,7.20
2019-03-01T16:00:25.591Z,7.97
2019-03-01T16:02:54.072Z,8.30
2019-03-01T16:05:23.871Z,8.37
2019-03-01T16:07:53.452Z,8.30
2019-03-01T16:10:22.874Z,8.97
2019-03-01T16:12:52.317Z,9.87
2019-03-01T16:15:24.681Z,9.87
2019-03-01T16:17:57.619Z,9.43
2019-03-01T16:20:28.481Z,8.50
2019-03-01T16:22:57.493Z,8.10
2019-03-01T16:25:29.959Z,8.07
2019-03-01T16:27:59.594Z,7.20
2019-03-01T16:30:29.057Z,7.63
2019-03-01T16:32:58.570Z,7.57
2019-03-01T16:35:28.069Z,7.80
2019-03-01T16:38:01.397Z,7.40
2019-03-01T16:40:30.604Z,7.77
2019-03-01T16:43:00.210Z,7.30
2019-03-01T16:45:29.985Z,7.13
2019-03-01T16:48:00.926Z,7.67
2019-03-01T16:50:30.568Z,8.23
2019-03-01T16:53:04.325Z,7.17
2019-03-01T16:55:31.778Z,7.80
2019-03-01T16:58:06.710Z,6.93
2019-03-01T17:00:32.522Z,7.33
2019-03-01T17:03:07.160Z,7.73
2019-03-01T17:05:38.789Z,7.33
2019-03-01T17:08:08.118Z,7.50
2019-03-01T17:10:37.714Z,7.40
2019-03-01T17:13:07.195Z,7.33
2019-03-01T17:15:36.720Z,7.87
2019-03-01T17:18:11.282Z,7.67
2019-03-01T17:20:38.389Z,7.67
2019-03-01T17:23:08.034Z,10.90
2019-03-01T17:25:37.510Z,14.83
2019-03-01T17:28:07.040Z,15.40
2019-03-01T17:30:39.294Z,17.33
2019-03-01T17:33:09.683Z,14.83
2019-03-01T17:35:40.915Z,10.23
2019-03-01T17:38:11.328Z,9.57
2019-03-01T17:40:40.844Z,9.33
2019-03-01T17:43:10.397Z,9.90
2019-03-01T17:45:39.840Z,11.53
2019-03-01T17:48:09.339Z,11.93
2019-03-01T17:50:41.729Z,11.07
2019-03-01T17:53:10.472Z,11.00
2019-03-01T17:55:40.087Z,10.43
2019-03-01T17:58:09.734Z,10.13
2019-03-01T18:00:43.585Z,11.93
2019-03-01T18:03:13.081Z,12.83
2019-03-01T18:05:42.593Z,13.60
2019-03-01T18:08:13.956Z,12.73
2019-03-01T18:10:43.477Z,12.23
2019-03-01T18:13:14.947Z,12.17
2019-03-01T18:15:45.087Z,12.13
2019-03-01T18:18:15.231Z,12.67
2019-03-01T18:20:44.851Z,13.83
2019-03-01T18:23:14.437Z,15.33
2019-03-01T18:25:43.869Z,15.13
2019-03-01T18:28:13.391Z,13.90
2019-03-01T18:30:42.882Z,13.20
2019-03-01T18:33:12.406Z,13.57
2019-03-01T18:35:41.838Z,12.50
2019-03-01T18:38:11.344Z,12.47
2019-03-01T18:40:43.285Z,13.80
2019-03-01T18:43:15.221Z,13.87
2019-03-01T18:45:44.646Z,12.47
2019-03-01T18:48:14.172Z,13.27
2019-03-01T18:50:43.681Z,13.27
2019-03-01T18:53:13.174Z,20.33
2019-03-01T18:55:42.628Z,26.73
2019-03-01T18:58:13.978Z,28.03
2019-03-01T19:00:45.911Z,26.63
2019-03-01T19:03:18.387Z,17.40
2019-03-01T19:05:47.947Z,15.10
2019-03-01T19:08:19.804Z,14.10
2019-03-01T19:10:54.163Z,12.00
2019-03-01T19:13:24.038Z,12.07
2019-03-01T19:15:54.544Z,11.87
2019-03-01T19:18:23.381Z,10.40
2019-03-01T19:20:53.950Z,11.37
2019-03-01T19:23:25.573Z,10.80
2019-03-01T19:25:57.883Z,11.07
2019-03-01T19:28:26.833Z,9.97
2019-03-01T19:30:57.162Z,10.27
2019-03-01T19:33:26.575Z,9.80
2019-03-01T19:35:56.042Z,9.00
2019-03-01T19:38:25.894Z,9.50
2019-03-01T19:40:55.447Z,10.00
2019-03-01T19:43:24.932Z,9.50
2019-03-01T19:45:54.373Z,8.97
2019-03-01T19:48:23.823Z,9.53
2019-03-01T19:50:53.309Z,8.83
2019-03-01T19:53:25.461Z,8.83
2019-03-01T19:55:54.098Z,8.70
2019-03-01T19:58:25.070Z,8.93
2019-03-01T20:00:54.486Z,8.50
2019-03-01T20:03:23.941Z,8.40
2019-03-01T20:05:53.460Z,9.00
2019-03-01T20:08:22.882Z,9.53
2019-03-01T20:10:52.393Z,7.97
2019-03-01T20:13:21.879Z,8.33
2019-03-01T20:15:51.328Z,8.27
2019-03-01T20:18:20.805Z,8.20
2019-03-01T20:20:50.257Z,7.90
2019-03-01T20:23:19.733Z,6.80
2019-03-01T20:25:51.031Z,7.20
2019-03-01T20:28:20.497Z,7.17
2019-03-01T20:30:49.934Z,7.30
2019-03-01T20:33:23.358Z,5.77
2019-03-01T20:35:51.035Z,6.13
2019-03-01T20:38:20.537Z,6.30
2019-03-01T20:40:49.994Z,6.43
2019-03-01T20:43:19.446Z,6.37
2019-03-01T20:45:50.709Z,5.70
2019-03-01T20:48:20.253Z,6.30
2019-03-01T20:50:51.024Z,6.40
2019-03-01T20:53:20.966Z,6.40
2019-03-01T20:55:51.046Z,6.30
2019-03-01T20:58:23.597Z,6.40
2019-03-01T21:00:53.159Z,6.23
2019-03-01T21:03:24.960Z,6.03
2019-03-01T21:05:53.824Z,6.30
2019-03-01T21:08:28.780Z,6.37
2019-03-01T21:10:54.483Z,6.33
2019-03-01T21:13:23.977Z,6.50
2019-03-01T21:15:53.422Z,6.00
2019-03-01T21:18:22.909Z,6.27
2019-03-01T21:20:53.797Z,6.70
2019-03-01T21:23:23.548Z,6.60
2019-03-01T21:25:52.979Z,7.17
2019-03-01T21:28:22.427Z,8.00
2019-03-01T21:30:51.840Z,6.77
2019-03-01T21:33:24.019Z,6.43
2019-03-01T21:35:52.412Z,6.93
2019-03-01T21:38:23.636Z,7.80
2019-03-01T21:40:54.211Z,7.40
2019-03-01T21:43:23.732Z,7.73
2019-03-01T21:45:55.524Z,6.83
2019-03-01T21:48:25.312Z,7.40
2019-03-01T21:50:55.538Z,6.60
2019-03-01T21:53:25.381Z,7.10
2019-03-01T21:55:54.919Z,6.60
2019-03-01T21:58:24.379Z,6.83
2019-03-01T22:00:53.844Z,6.70
2019-03-01T22:03:24.887Z,6.80
2019-03-01T22:05:54.518Z,5.83
2019-03-01T22:08:24.004Z,6.10
2019-03-01T22:10:53.452Z,6.20
2019-03-01T22:13:22.952Z,6.67
2019-03-01T22:15:52.455Z,5.67
2019-03-01T22:18:23.710Z,5.90
2019-03-01T22:20:53.092Z,6.03
2019-03-01T22:23:22.522Z,5.20
2019-03-01T22:25:51.960Z,6.10
2019-03-01T22:28:21.421Z,5.33
2019-03-01T22:30:50.842Z,5.83
2019-03-01T22:33:20.770Z,5.27
2019-03-01T22:35:51.357Z,5.53
2019-03-01T22:38:20.792Z,5.60
2019-03-01T22:40:50.233Z,6.07
2019-03-01T22:43:22.471Z,5.27
2019-03-01T22:45:50.798Z,6.27
2019-03-01T22:48:20.244Z,5.77
2019-03-01T22:50:49.681Z,5.63
2019-03-01T22:53:19.138Z,5.67
2019-03-01T22:55:51.541Z,5.77
2019-03-01T22:58:19.691Z,5.63
2019-03-01T23:01:00.051Z,5.20
2019-03-01T23:03:30.206Z,5.60
2019-03-01T23:05:59.717Z,5.23
2019-03-01T23:08:31.747Z,5.50
2019-03-01T23:11:00.529Z,5.47
2019-03-01T23:13:30.015Z,5.23
2019-03-01T23:15:59.522Z,5.20
2019-03-01T23:18:28.944Z,4.73
2019-03-01T23:21:01.112Z,4.93
2019-03-01T23:23:29.495Z,6.07
2019-03-01T23:25:58.980Z,5.43
2019-03-01T23:28:28.496Z,5.80
2019-03-01T23:31:00.573Z,5.80
2019-03-01T23:33:31.554Z,5.30
2019-03-01T23:36:00.652Z,5.33
2019-03-01T23:38:30.066Z,5.23
2019-03-01T23:40:59.504Z,5.80
2019-03-01T23:43:30.897Z,5.43
2019-03-01T23:46:00.102Z,5.53
2019-03-01T23:48:29.539Z,6.33
2019-03-01T23:50:58.984Z,5.43
2019-03-01T23:53:30.943Z,5.63
2019-03-01T23:55:59.544Z,5.40
2019-03-01T23:58:28.958Z,5.13
